sensor_id;sensor_type;location;lat;lon;timestamp;pressure;altitude;pressure_sealevel;temperature;humidity
10518;BME280;5307;42.548;22.968;2022-07-12T00:01:42;94341.78;;;11.52;76.55
10518;BME280;5307;42.548;22.968;2022-07-12T00:04:09;94341.28;;;11.44;77.60
10518;BME280;5307;42.548;22.968;2022-07-12T00:06:37;94337.53;;;11.51;77.10
10518;BME280;5307;42.548;22.968;2022-07-12T00:09:04;94342.03;;;11.45;76.04
10518;BME280;5307;42.548;22.968;2022-07-12T00:11:31;94351.34;;;11.35;77.30
10518;BME280;5307;42.548;22.968;2022-07-12T00:13:58;94342.63;;;11.27;77.54
10518;BME280;5307;42.548;22.968;2022-07-12T00:16:25;94344.91;;;11.28;77.35
10518;BME280;5307;42.548;22.968;2022-07-12T00:18:51;94344.34;;;11.34;77.51
10518;BME280;5307;42.548;22.968;2022-07-12T00:21:19;94340.88;;;11.20;77.62
10518;BME280;5307;42.548;22.968;2022-07-12T00:23:47;94350.25;;;11.32;77.74
10518;BME280;5307;42.548;22.968;2022-07-12T00:26:14;94346.19;;;11.37;76.96
10518;BME280;5307;42.548;22.968;2022-07-12T00:28:41;94353.13;;;11.28;77.28
10518;BME280;5307;42.548;22.968;2022-07-12T00:31:08;94351.78;;;11.20;77.61
10518;BME280;5307;42.548;22.968;2022-07-12T00:33:35;94351.16;;;11.29;77.85
10518;BME280;5307;42.548;22.968;2022-07-12T00:36:02;94350.06;;;11.26;78.00
10518;BME280;5307;42.548;22.968;2022-07-12T00:38:28;94348.88;;;11.02;77.50
10518;BME280;5307;42.548;22.968;2022-07-12T00:40:57;94346.00;;;11.06;77.65
10518;BME280;5307;42.548;22.968;2022-07-12T00:43:24;94341.44;;;11.15;77.57
10518;BME280;5307;42.548;22.968;2022-07-12T00:45:50;94346.25;;;10.86;79.00
10518;BME280;5307;42.548;22.968;2022-07-12T00:48:17;94343.16;;;10.96;77.97
10518;BME280;5307;42.548;22.968;2022-07-12T00:50:44;94344.16;;;10.90;78.89
10518;BME280;5307;42.548;22.968;2022-07-12T00:53:13;94346.13;;;10.89;79.08
10518;BME280;5307;42.548;22.968;2022-07-12T00:55:40;94339.34;;;10.94;79.06
10518;BME280;5307;42.548;22.968;2022-07-12T00:58:08;94340.44;;;10.84;79.40
10518;BME280;5307;42.548;22.968;2022-07-12T01:00:35;94331.56;;;10.67;80.02
10518;BME280;5307;42.548;22.968;2022-07-12T01:03:03;94343.25;;;10.67;79.96
10518;BME280;5307;42.548;22.968;2022-07-12T01:05:30;94344.16;;;10.77;79.76
10518;BME280;5307;42.548;22.968;2022-07-12T01:07:57;94337.25;;;10.60;79.53
10518;BME280;5307;42.548;22.968;2022-07-12T01:10:24;94337.91;;;10.77;77.79
10518;BME280;5307;42.548;22.968;2022-07-12T01:12:51;94338.69;;;10.90;77.17
10518;BME280;5307;42.548;22.968;2022-07-12T01:15:20;94335.41;;;10.95;76.30
10518;BME280;5307;42.548;22.968;2022-07-12T01:17:47;94337.38;;;10.56;77.82
10518;BME280;5307;42.548;22.968;2022-07-12T01:20:14;94330.34;;;10.43;78.45
10518;BME280;5307;42.548;22.968;2022-07-12T01:22:50;94335.94;;;10.64;78.28
10518;BME280;5307;42.548;22.968;2022-07-12T01:25:18;94335.03;;;10.55;77.77
10518;BME280;5307;42.548;22.968;2022-07-12T01:27:45;94331.03;;;10.59;78.16
10518;BME280;5307;42.548;22.968;2022-07-12T01:30:12;94335.47;;;10.53;77.97
10518;BME280;5307;42.548;22.968;2022-07-12T01:32:39;94329.38;;;10.62;77.71
10518;BME280;5307;42.548;22.968;2022-07-12T01:35:07;94330.56;;;10.48;77.27
10518;BME280;5307;42.548;22.968;2022-07-12T01:37:35;94332.88;;;10.50;77.39
10518;BME280;5307;42.548;22.968;2022-07-12T01:40:06;94331.22;;;10.52;77.86
10518;BME280;5307;42.548;22.968;2022-07-12T01:42:33;94335.81;;;10.43;78.35
10518;BME280;5307;42.548;22.968;2022-07-12T01:45:00;94330.22;;;10.33;78.85
10518;BME280;5307;42.548;22.968;2022-07-12T01:47:30;94336.56;;;10.30;79.28
10518;BME280;5307;42.548;22.968;2022-07-12T01:49:57;94339.63;;;10.45;79.69
10518;BME280;5307;42.548;22.968;2022-07-12T01:52:25;94334.16;;;10.32;80.43
10518;BME280;5307;42.548;22.968;2022-07-12T01:54:53;94340.69;;;10.35;80.31
10518;BME280;5307;42.548;22.968;2022-07-12T01:57:21;94344.66;;;10.47;79.79
10518;BME280;5307;42.548;22.968;2022-07-12T01:59:48;94342.56;;;10.09;81.11
10518;BME280;5307;42.548;22.968;2022-07-12T02:02:15;94335.03;;;10.00;82.01
10518;BME280;5307;42.548;22.968;2022-07-12T02:04:42;94343.28;;;10.26;80.25
10518;BME280;5307;42.548;22.968;2022-07-12T02:07:09;94346.03;;;10.26;79.89
10518;BME280;5307;42.548;22.968;2022-07-12T02:09:36;94335.41;;;10.15;80.82
10518;BME280;5307;42.548;22.968;2022-07-12T02:12:03;94337.53;;;10.07;79.94
10518;BME280;5307;42.548;22.968;2022-07-12T02:14:32;94334.91;;;10.33;78.78
10518;BME280;5307;42.548;22.968;2022-07-12T02:16:59;94336.34;;;10.08;78.90
10518;BME280;5307;42.548;22.968;2022-07-12T02:19:25;94329.81;;;10.19;79.31
10518;BME280;5307;42.548;22.968;2022-07-12T02:21:52;94330.88;;;10.08;79.07
10518;BME280;5307;42.548;22.968;2022-07-12T02:24:19;94333.09;;;10.14;79.84
10518;BME280;5307;42.548;22.968;2022-07-12T02:26:46;94326.56;;;9.95;80.63
10518;BME280;5307;42.548;22.968;2022-07-12T02:29:13;94335.03;;;10.00;80.48
10518;BME280;5307;42.548;22.968;2022-07-12T02:31:41;94328.91;;;10.09;80.15
10518;BME280;5307;42.548;22.968;2022-07-12T02:34:08;94332.75;;;10.11;79.25
10518;BME280;5307;42.548;22.968;2022-07-12T02:36:34;94341.09;;;9.92;80.14
10518;BME280;5307;42.548;22.968;2022-07-12T02:39:02;94337.16;;;10.22;78.77
10518;BME280;5307;42.548;22.968;2022-07-12T02:41:30;94339.59;;;10.03;78.54
10518;BME280;5307;42.548;22.968;2022-07-12T02:43:57;94336.06;;;9.90;80.47
10518;BME280;5307;42.548;22.968;2022-07-12T02:46:24;94339.22;;;9.89;81.24
10518;BME280;5307;42.548;22.968;2022-07-12T02:48:52;94341.47;;;10.06;79.85
10518;BME280;5307;42.548;22.968;2022-07-12T02:51:19;94338.41;;;10.04;79.50
10518;BME280;5307;42.548;22.968;2022-07-12T02:53:46;94342.34;;;10.03;80.06
10518;BME280;5307;42.548;22.968;2022-07-12T02:56:12;94348.03;;;10.09;79.54
10518;BME280;5307;42.548;22.968;2022-07-12T02:58:39;94345.88;;;9.88;80.06
10518;BME280;5307;42.548;22.968;2022-07-12T03:01:07;94345.63;;;9.82;80.52
10518;BME280;5307;42.548;22.968;2022-07-12T03:03:33;94353.75;;;9.98;80.32
10518;BME280;5307;42.548;22.968;2022-07-12T03:06:02;94359.97;;;9.99;80.74
10518;BME280;5307;42.548;22.968;2022-07-12T03:08:29;94364.53;;;9.89;81.24
10518;BME280;5307;42.548;22.968;2022-07-12T03:10:56;94369.66;;;9.87;81.16
10518;BME280;5307;42.548;22.968;2022-07-12T03:13:23;94358.88;;;9.96;80.39
10518;BME280;5307;42.548;22.968;2022-07-12T03:15:51;94367.28;;;9.89;80.93
10518;BME280;5307;42.548;22.968;2022-07-12T03:18:17;94368.97;;;9.83;81.66
10518;BME280;5307;42.548;22.968;2022-07-12T03:20:44;94374.59;;;9.92;81.21
10518;BME280;5307;42.548;22.968;2022-07-12T03:23:12;94377.44;;;10.18;80.02
10518;BME280;5307;42.548;22.968;2022-07-12T03:25:39;94381.63;;;9.77;81.90
10518;BME280;5307;42.548;22.968;2022-07-12T03:28:06;94376.56;;;9.92;81.15
10518;BME280;5307;42.548;22.968;2022-07-12T03:30:33;94383.88;;;9.95;81.88
10518;BME280;5307;42.548;22.968;2022-07-12T03:33:00;94367.94;;;9.93;81.83
10518;BME280;5307;42.548;22.968;2022-07-12T03:35:26;94374.75;;;9.85;82.12
10518;BME280;5307;42.548;22.968;2022-07-12T03:37:53;94367.16;;;9.93;82.25
10518;BME280;5307;42.548;22.968;2022-07-12T03:40:22;94375.78;;;9.91;81.55
10518;BME280;5307;42.548;22.968;2022-07-12T03:42:49;94373.28;;;9.97;81.93
10518;BME280;5307;42.548;22.968;2022-07-12T03:45:16;94377.84;;;9.71;82.39
10518;BME280;5307;42.548;22.968;2022-07-12T03:47:43;94370.09;;;10.15;81.68
10518;BME280;5307;42.548;22.968;2022-07-12T03:50:11;94374.38;;;10.16;80.67
10518;BME280;5307;42.548;22.968;2022-07-12T03:52:39;94371.19;;;10.17;81.40
10518;BME280;5307;42.548;22.968;2022-07-12T03:55:07;94372.59;;;10.09;81.88
10518;BME280;5307;42.548;22.968;2022-07-12T03:57:35;94377.41;;;10.34;80.76
10518;BME280;5307;42.548;22.968;2022-07-12T04:00:04;94371.91;;;10.05;82.32
10518;BME280;5307;42.548;22.968;2022-07-12T04:02:33;94367.00;;;10.29;79.73
10518;BME280;5307;42.548;22.968;2022-07-12T04:05:00;94388.09;;;10.41;80.07
10518;BME280;5307;42.548;22.968;2022-07-12T04:07:26;94382.38;;;10.23;82.06
10518;BME280;5307;42.548;22.968;2022-07-12T04:09:53;94387.25;;;10.44;81.42
10518;BME280;5307;42.548;22.968;2022-07-12T04:12:20;94394.91;;;10.49;79.98
10518;BME280;5307;42.548;22.968;2022-07-12T04:14:48;94399.75;;;10.12;78.75
10518;BME280;5307;42.548;22.968;2022-07-12T04:17:15;94396.03;;;10.06;78.42
10518;BME280;5307;42.548;22.968;2022-07-12T04:19:42;94393.91;;;10.43;76.67
10518;BME280;5307;42.548;22.968;2022-07-12T04:22:08;94400.41;;;10.62;77.20
10518;BME280;5307;42.548;22.968;2022-07-12T04:24:35;94402.41;;;10.74;76.71
10518;BME280;5307;42.548;22.968;2022-07-12T04:27:02;94408.88;;;10.51;77.28
10518;BME280;5307;42.548;22.968;2022-07-12T04:29:29;94400.63;;;10.26;78.47
10518;BME280;5307;42.548;22.968;2022-07-12T04:31:57;94412.84;;;10.63;77.88
10518;BME280;5307;42.548;22.968;2022-07-12T04:34:24;94406.91;;;10.93;76.22
10518;BME280;5307;42.548;22.968;2022-07-12T04:36:51;94407.34;;;10.92;75.46
10518;BME280;5307;42.548;22.968;2022-07-12T04:39:18;94406.47;;;10.95;76.74
10518;BME280;5307;42.548;22.968;2022-07-12T04:41:45;94410.94;;;11.52;75.00
10518;BME280;5307;42.548;22.968;2022-07-12T04:44:11;94409.84;;;11.63;74.84
10518;BME280;5307;42.548;22.968;2022-07-12T04:46:39;94404.78;;;12.21;71.76
10518;BME280;5307;42.548;22.968;2022-07-12T04:49:08;94407.56;;;12.08;71.42
10518;BME280;5307;42.548;22.968;2022-07-12T04:51:35;94400.66;;;12.38;71.21
10518;BME280;5307;42.548;22.968;2022-07-12T04:54:02;94397.78;;;12.64;70.32
10518;BME280;5307;42.548;22.968;2022-07-12T04:56:29;94400.59;;;12.73;69.57
10518;BME280;5307;42.548;22.968;2022-07-12T04:58:57;94398.91;;;12.10;71.50
10518;BME280;5307;42.548;22.968;2022-07-12T05:01:24;94406.06;;;12.29;71.95
10518;BME280;5307;42.548;22.968;2022-07-12T05:03:51;94400.34;;;12.36;71.18
10518;BME280;5307;42.548;22.968;2022-07-12T05:06:19;94402.72;;;12.69;70.90
10518;BME280;5307;42.548;22.968;2022-07-12T05:08:47;94405.34;;;13.03;71.72
10518;BME280;5307;42.548;22.968;2022-07-12T05:11:13;94399.53;;;13.01;72.53
10518;BME280;5307;42.548;22.968;2022-07-12T05:13:40;94405.28;;;12.94;71.52
10518;BME280;5307;42.548;22.968;2022-07-12T05:16:08;94406.47;;;12.84;72.16
10518;BME280;5307;42.548;22.968;2022-07-12T05:18:35;94407.88;;;13.20;71.96
10518;BME280;5307;42.548;22.968;2022-07-12T05:21:02;94407.06;;;13.10;71.45
10518;BME280;5307;42.548;22.968;2022-07-12T05:23:30;94401.25;;;13.98;68.83
10518;BME280;5307;42.548;22.968;2022-07-12T05:25:57;94395.31;;;13.99;67.49
10518;BME280;5307;42.548;22.968;2022-07-12T05:28:24;94403.25;;;14.43;65.18
10518;BME280;5307;42.548;22.968;2022-07-12T05:30:50;94406.41;;;13.86;69.78
10518;BME280;5307;42.548;22.968;2022-07-12T05:33:17;94405.13;;;14.64;66.36
10518;BME280;5307;42.548;22.968;2022-07-12T05:35:44;94394.72;;;14.59;64.47
10518;BME280;5307;42.548;22.968;2022-07-12T05:38:11;94395.84;;;15.13;63.45
10518;BME280;5307;42.548;22.968;2022-07-12T05:40:39;94399.91;;;14.48;64.18
10518;BME280;5307;42.548;22.968;2022-07-12T05:43:06;94402.66;;;14.48;64.34
10518;BME280;5307;42.548;22.968;2022-07-12T05:45:33;94400.50;;;14.43;64.09
10518;BME280;5307;42.548;22.968;2022-07-12T05:47:59;94390.50;;;15.09;62.25
10518;BME280;5307;42.548;22.968;2022-07-12T05:50:26;94396.25;;;14.78;61.99
10518;BME280;5307;42.548;22.968;2022-07-12T05:52:53;94400.09;;;15.65;60.87
10518;BME280;5307;42.548;22.968;2022-07-12T05:55:39;94397.38;;;15.47;58.77
10518;BME280;5307;42.548;22.968;2022-07-12T05:58:06;94400.09;;;15.65;57.93
10518;BME280;5307;42.548;22.968;2022-07-12T06:00:33;94394.13;;;15.25;59.28
10518;BME280;5307;42.548;22.968;2022-07-12T06:03:00;94390.88;;;16.40;57.07
10518;BME280;5307;42.548;22.968;2022-07-12T06:05:27;94382.91;;;16.57;57.04
10518;BME280;5307;42.548;22.968;2022-07-12T06:07:54;94379.91;;;16.31;57.94
10518;BME280;5307;42.548;22.968;2022-07-12T06:10:20;94378.63;;;16.41;56.51
10518;BME280;5307;42.548;22.968;2022-07-12T06:12:49;94381.84;;;17.23;55.04
10518;BME280;5307;42.548;22.968;2022-07-12T06:15:16;94380.50;;;16.88;56.17
10518;BME280;5307;42.548;22.968;2022-07-12T06:17:42;94383.53;;;17.35;54.53
10518;BME280;5307;42.548;22.968;2022-07-12T06:20:10;94382.03;;;17.04;55.89
10518;BME280;5307;42.548;22.968;2022-07-12T06:22:37;94381.53;;;16.61;58.38
10518;BME280;5307;42.548;22.968;2022-07-12T06:25:05;94376.53;;;17.04;54.80
10518;BME280;5307;42.548;22.968;2022-07-12T06:27:32;94379.03;;;17.52;53.58
10518;BME280;5307;42.548;22.968;2022-07-12T06:30:00;94370.25;;;18.70;52.82
10518;BME280;5307;42.548;22.968;2022-07-12T06:32:28;94376.00;;;18.66;50.54
10518;BME280;5307;42.548;22.968;2022-07-12T06:34:54;94365.59;;;18.15;52.43
10518;BME280;5307;42.548;22.968;2022-07-12T06:37:22;94371.91;;;17.45;51.81
10518;BME280;5307;42.548;22.968;2022-07-12T06:39:49;94370.91;;;17.63;54.02
10518;BME280;5307;42.548;22.968;2022-07-12T06:42:16;94373.03;;;18.50;51.44
10518;BME280;5307;42.548;22.968;2022-07-12T06:44:42;94359.66;;;18.22;51.29
10518;BME280;5307;42.548;22.968;2022-07-12T06:47:11;94363.09;;;17.76;52.37
10518;BME280;5307;42.548;22.968;2022-07-12T06:49:37;94359.63;;;17.82;51.63
10518;BME280;5307;42.548;22.968;2022-07-12T06:52:05;94358.63;;;18.86;50.50
10518;BME280;5307;42.548;22.968;2022-07-12T06:54:32;94354.72;;;18.52;50.25
10518;BME280;5307;42.548;22.968;2022-07-12T06:56:59;94352.88;;;19.21;50.31
10518;BME280;5307;42.548;22.968;2022-07-12T06:59:25;94353.78;;;19.76;48.21
10518;BME280;5307;42.548;22.968;2022-07-12T07:01:52;94351.97;;;19.67;48.16
10518;BME280;5307;42.548;22.968;2022-07-12T07:04:22;94351.94;;;20.10;47.85
10518;BME280;5307;42.548;22.968;2022-07-12T07:06:49;94356.09;;;20.37;46.32
10518;BME280;5307;42.548;22.968;2022-07-12T07:09:16;94359.28;;;20.84;44.23
10518;BME280;5307;42.548;22.968;2022-07-12T07:11:43;94347.66;;;19.61;45.71
10518;BME280;5307;42.548;22.968;2022-07-12T07:14:10;94350.16;;;20.61;46.35
10518;BME280;5307;42.548;22.968;2022-07-12T07:16:36;94355.94;;;20.57;44.51
10518;BME280;5307;42.548;22.968;2022-07-12T07:19:03;94345.94;;;21.21;42.68
10518;BME280;5307;42.548;22.968;2022-07-12T07:21:32;94348.88;;;20.56;45.42
10518;BME280;5307;42.548;22.968;2022-07-12T07:23:59;94349.16;;;20.69;43.96
10518;BME280;5307;42.548;22.968;2022-07-12T07:26:26;94349.44;;;20.94;43.92
10518;BME280;5307;42.548;22.968;2022-07-12T07:28:52;94346.41;;;20.92;43.39
10518;BME280;5307;42.548;22.968;2022-07-12T07:31:37;94342.34;;;20.76;43.13
10518;BME280;5307;42.548;22.968;2022-07-12T07:34:04;94349.47;;;21.16;44.62
10518;BME280;5307;42.548;22.968;2022-07-12T07:36:32;94336.06;;;20.87;42.72
10518;BME280;5307;42.548;22.968;2022-07-12T07:38:59;94341.41;;;21.18;43.83
10518;BME280;5307;42.548;22.968;2022-07-12T07:41:26;94340.91;;;21.59;43.28
10518;BME280;5307;42.548;22.968;2022-07-12T07:43:53;94351.72;;;20.95;43.14
10518;BME280;5307;42.548;22.968;2022-07-12T07:46:20;94343.63;;;20.81;42.89
10518;BME280;5307;42.548;22.968;2022-07-12T07:48:47;94338.53;;;20.68;42.75
10518;BME280;5307;42.548;22.968;2022-07-12T07:51:13;94343.69;;;21.14;43.50
10518;BME280;5307;42.548;22.968;2022-07-12T07:53:42;94334.31;;;21.23;40.40
10518;BME280;5307;42.548;22.968;2022-07-12T07:56:09;94338.81;;;20.81;42.07
10518;BME280;5307;42.548;22.968;2022-07-12T07:58:35;94336.34;;;21.00;42.59
10518;BME280;5307;42.548;22.968;2022-07-12T08:01:02;94341.63;;;21.03;44.77
10518;BME280;5307;42.548;22.968;2022-07-12T08:03:29;94329.94;;;22.00;43.35
10518;BME280;5307;42.548;22.968;2022-07-12T08:05:56;94327.25;;;21.50;43.98
10518;BME280;5307;42.548;22.968;2022-07-12T08:08:24;94330.28;;;21.07;43.11
10518;BME280;5307;42.548;22.968;2022-07-12T08:10:52;94328.63;;;22.18;42.52
10518;BME280;5307;42.548;22.968;2022-07-12T08:13:19;94318.69;;;21.25;41.49
10518;BME280;5307;42.548;22.968;2022-07-12T08:15:46;94322.91;;;21.88;42.93
10518;BME280;5307;42.548;22.968;2022-07-12T08:18:13;94313.25;;;21.94;42.55
10518;BME280;5307;42.548;22.968;2022-07-12T08:20:40;94315.25;;;22.16;38.99
10518;BME280;5307;42.548;22.968;2022-07-12T08:23:07;94313.69;;;22.27;40.91
10518;BME280;5307;42.548;22.968;2022-07-12T08:25:34;94308.09;;;22.85;40.25
10518;BME280;5307;42.548;22.968;2022-07-12T08:28:03;94301.91;;;21.81;41.31
10518;BME280;5307;42.548;22.968;2022-07-12T08:30:29;94306.38;;;22.18;42.25
10518;BME280;5307;42.548;22.968;2022-07-12T08:32:56;94298.63;;;22.93;41.94
10518;BME280;5307;42.548;22.968;2022-07-12T08:35:23;94299.06;;;22.62;44.10
10518;BME280;5307;42.548;22.968;2022-07-12T08:37:50;94318.09;;;21.88;42.39
10518;BME280;5307;42.548;22.968;2022-07-12T08:40:17;94313.63;;;21.41;41.81
10518;BME280;5307;42.548;22.968;2022-07-12T08:42:43;94313.13;;;21.48;42.24
10518;BME280;5307;42.548;22.968;2022-07-12T08:45:14;94313.34;;;21.05;42.22
10518;BME280;5307;42.548;22.968;2022-07-12T08:47:41;94315.72;;;20.36;44.74
10518;BME280;5307;42.548;22.968;2022-07-12T08:50:16;94307.78;;;20.77;41.22
10518;BME280;5307;42.548;22.968;2022-07-12T08:52:44;94298.19;;;21.56;39.86
10518;BME280;5307;42.548;22.968;2022-07-12T08:55:20;94294.16;;;20.90;40.36
10518;BME280;5307;42.548;22.968;2022-07-12T08:57:47;94295.47;;;21.28;42.63
10518;BME280;5307;42.548;22.968;2022-07-12T09:00:16;94296.38;;;20.47;42.61
10518;BME280;5307;42.548;22.968;2022-07-12T09:02:48;94301.25;;;21.19;43.81
10518;BME280;5307;42.548;22.968;2022-07-12T09:05:17;94298.69;;;20.71;40.24
10518;BME280;5307;42.548;22.968;2022-07-12T09:07:44;94289.09;;;20.61;41.72
10518;BME280;5307;42.548;22.968;2022-07-12T09:10:12;94286.56;;;21.69;40.76
10518;BME280;5307;42.548;22.968;2022-07-12T09:12:39;94284.53;;;21.53;41.29
10518;BME280;5307;42.548;22.968;2022-07-12T09:15:16;94277.66;;;21.87;41.74
10518;BME280;5307;42.548;22.968;2022-07-12T09:17:56;94283.41;;;22.59;36.56
10518;BME280;5307;42.548;22.968;2022-07-12T09:20:25;94276.69;;;22.84;41.11
10518;BME280;5307;42.548;22.968;2022-07-12T09:22:53;94278.19;;;22.44;36.97
10518;BME280;5307;42.548;22.968;2022-07-12T09:25:21;94278.91;;;22.91;37.91
10518;BME280;5307;42.548;22.968;2022-07-12T09:27:50;94277.28;;;22.66;39.30
10518;BME280;5307;42.548;22.968;2022-07-12T09:30:19;94270.78;;;22.05;36.79
10518;BME280;5307;42.548;22.968;2022-07-12T09:32:51;94286.28;;;21.67;36.50
10518;BME280;5307;42.548;22.968;2022-07-12T09:35:35;94281.56;;;21.34;33.72
10518;BME280;5307;42.548;22.968;2022-07-12T09:38:19;94269.53;;;22.47;34.88
10518;BME280;5307;42.548;22.968;2022-07-12T09:40:46;94274.59;;;22.90;35.63
10518;BME280;5307;42.548;22.968;2022-07-12T09:43:14;94265.78;;;22.45;35.96
10518;BME280;5307;42.548;22.968;2022-07-12T09:45:42;94276.34;;;22.05;37.68
10518;BME280;5307;42.548;22.968;2022-07-12T09:48:10;94272.78;;;22.10;39.54
10518;BME280;5307;42.548;22.968;2022-07-12T09:50:38;94280.47;;;21.71;37.82
10518;BME280;5307;42.548;22.968;2022-07-12T09:53:09;94273.25;;;21.28;38.08
10518;BME280;5307;42.548;22.968;2022-07-12T09:55:37;94280.53;;;21.54;40.96
10518;BME280;5307;42.548;22.968;2022-07-12T09:58:07;94279.75;;;21.53;40.72
10518;BME280;5307;42.548;22.968;2022-07-12T10:00:35;94275.91;;;22.42;39.27
10518;BME280;5307;42.548;22.968;2022-07-12T10:03:04;94271.75;;;23.01;35.54
10518;BME280;5307;42.548;22.968;2022-07-12T10:05:34;94277.69;;;22.81;34.94
10518;BME280;5307;42.548;22.968;2022-07-12T10:08:01;94268.78;;;22.47;38.26
10518;BME280;5307;42.548;22.968;2022-07-12T10:10:28;94271.84;;;21.85;39.32
10518;BME280;5307;42.548;22.968;2022-07-12T10:12:56;94274.72;;;20.96;38.98
10518;BME280;5307;42.548;22.968;2022-07-12T10:15:25;94272.69;;;21.47;40.94
10518;BME280;5307;42.548;22.968;2022-07-12T10:17:54;94275.47;;;21.24;38.65
10518;BME280;5307;42.548;22.968;2022-07-12T10:20:24;94268.66;;;21.20;39.95
10518;BME280;5307;42.548;22.968;2022-07-12T10:22:52;94270.13;;;21.71;37.71
10518;BME280;5307;42.548;22.968;2022-07-12T10:25:29;94254.38;;;21.90;36.10
10518;BME280;5307;42.548;22.968;2022-07-12T10:27:56;94253.19;;;21.63;38.94
10518;BME280;5307;42.548;22.968;2022-07-12T10:30:24;94245.63;;;22.28;39.26
10518;BME280;5307;42.548;22.968;2022-07-12T10:32:52;94251.34;;;22.82;36.55
10518;BME280;5307;42.548;22.968;2022-07-12T10:35:25;94255.44;;;21.76;36.94
10518;BME280;5307;42.548;22.968;2022-07-12T10:38:18;94254.25;;;21.55;40.54
10518;BME280;5307;42.548;22.968;2022-07-12T10:40:50;94262.59;;;21.55;40.87
10518;BME280;5307;42.548;22.968;2022-07-12T10:43:22;94252.44;;;21.69;40.62
10518;BME280;5307;42.548;22.968;2022-07-12T10:46:21;94259.03;;;21.49;38.98
10518;BME280;5307;42.548;22.968;2022-07-12T10:48:49;94251.81;;;21.98;38.08
10518;BME280;5307;42.548;22.968;2022-07-12T10:51:18;94252.13;;;21.78;37.66
10518;BME280;5307;42.548;22.968;2022-07-12T10:53:46;94243.59;;;21.64;36.07
10518;BME280;5307;42.548;22.968;2022-07-12T10:56:18;94238.38;;;20.94;35.90
10518;BME280;5307;42.548;22.968;2022-07-12T10:58:55;94236.50;;;21.63;38.16
10518;BME280;5307;42.548;22.968;2022-07-12T11:01:24;94246.38;;;21.59;39.50
10518;BME280;5307;42.548;22.968;2022-07-12T11:03:53;94255.69;;;22.36;37.51
10518;BME280;5307;42.548;22.968;2022-07-12T11:06:23;94244.78;;;22.44;37.28
10518;BME280;5307;42.548;22.968;2022-07-12T11:08:53;94242.75;;;22.44;40.25
10518;BME280;5307;42.548;22.968;2022-07-12T11:11:21;94251.97;;;22.22;38.89
10518;BME280;5307;42.548;22.968;2022-07-12T11:13:49;94245.88;;;22.65;40.51
10518;BME280;5307;42.548;22.968;2022-07-12T11:16:16;94245.81;;;22.41;37.80
10518;BME280;5307;42.548;22.968;2022-07-12T11:18:43;94243.19;;;22.13;38.27
10518;BME280;5307;42.548;22.968;2022-07-12T11:21:10;94253.53;;;22.18;39.02
10518;BME280;5307;42.548;22.968;2022-07-12T11:23:39;94256.25;;;22.70;39.58
10518;BME280;5307;42.548;22.968;2022-07-12T11:26:08;94238.78;;;22.70;37.07
10518;BME280;5307;42.548;22.968;2022-07-12T11:28:36;94246.19;;;22.97;39.02
10518;BME280;5307;42.548;22.968;2022-07-12T11:31:05;94245.75;;;22.00;38.33
10518;BME280;5307;42.548;22.968;2022-07-12T11:33:35;94251.81;;;21.92;39.11
10518;BME280;5307;42.548;22.968;2022-07-12T11:36:04;94253.41;;;21.82;40.04
10518;BME280;5307;42.548;22.968;2022-07-12T11:38:32;94253.88;;;21.86;38.02
10518;BME280;5307;42.548;22.968;2022-07-12T11:41:02;94248.25;;;22.03;38.05
10518;BME280;5307;42.548;22.968;2022-07-12T11:43:30;94241.41;;;22.10;42.62
10518;BME280;5307;42.548;22.968;2022-07-12T11:45:58;94234.50;;;22.22;37.51
10518;BME280;5307;42.548;22.968;2022-07-12T11:48:25;94239.50;;;22.40;38.92
10518;BME280;5307;42.548;22.968;2022-07-12T11:50:52;94235.19;;;22.39;39.72
10518;BME280;5307;42.548;22.968;2022-07-12T11:53:21;94238.00;;;22.34;36.89
10518;BME280;5307;42.548;22.968;2022-07-12T11:55:49;94229.59;;;22.45;38.95
10518;BME280;5307;42.548;22.968;2022-07-12T11:58:19;94223.72;;;22.54;37.82
10518;BME280;5307;42.548;22.968;2022-07-12T12:00:47;94219.94;;;22.87;40.17
10518;BME280;5307;42.548;22.968;2022-07-12T12:03:15;94221.72;;;22.49;36.71
10518;BME280;5307;42.548;22.968;2022-07-12T12:05:43;94231.88;;;21.88;37.56
10518;BME280;5307;42.548;22.968;2022-07-12T12:08:11;94236.34;;;22.08;40.34
10518;BME280;5307;42.548;22.968;2022-07-12T12:10:39;94243.25;;;22.43;39.92
10518;BME280;5307;42.548;22.968;2022-07-12T12:13:13;94229.09;;;21.88;37.92
10518;BME280;5307;42.548;22.968;2022-07-12T12:15:49;94235.75;;;21.63;39.13
10518;BME280;5307;42.548;22.968;2022-07-12T12:18:28;94225.97;;;21.45;38.20
10518;BME280;5307;42.548;22.968;2022-07-12T12:20:57;94220.16;;;21.38;38.30
10518;BME280;5307;42.548;22.968;2022-07-12T12:23:24;94220.34;;;21.62;38.76
10518;BME280;5307;42.548;22.968;2022-07-12T12:25:51;94220.59;;;22.22;42.02
10518;BME280;5307;42.548;22.968;2022-07-12T12:28:18;94218.78;;;22.30;39.28
10518;BME280;5307;42.548;22.968;2022-07-12T12:30:50;94221.03;;;21.79;38.55
10518;BME280;5307;42.548;22.968;2022-07-12T12:33:33;94218.25;;;21.79;39.92
10518;BME280;5307;42.548;22.968;2022-07-12T12:36:11;94224.38;;;21.72;41.02
10518;BME280;5307;42.548;22.968;2022-07-12T12:38:38;94228.84;;;21.86;42.09
10518;BME280;5307;42.548;22.968;2022-07-12T12:41:05;94231.28;;;21.38;41.74
10518;BME280;5307;42.548;22.968;2022-07-12T12:43:32;94228.75;;;21.23;41.84
10518;BME280;5307;42.548;22.968;2022-07-12T12:46:00;94219.41;;;21.09;42.53
10518;BME280;5307;42.548;22.968;2022-07-12T12:48:29;94216.66;;;21.09;41.72
10518;BME280;5307;42.548;22.968;2022-07-12T12:51:03;94216.41;;;21.07;40.93
10518;BME280;5307;42.548;22.968;2022-07-12T12:53:31;94210.50;;;21.61;43.44
10518;BME280;5307;42.548;22.968;2022-07-12T12:55:58;94204.22;;;21.55;40.10
10518;BME280;5307;42.548;22.968;2022-07-12T12:58:26;94203.34;;;21.82;41.04
10518;BME280;5307;42.548;22.968;2022-07-12T13:00:54;94200.81;;;21.84;40.95
10518;BME280;5307;42.548;22.968;2022-07-12T13:03:23;94206.41;;;21.73;42.12
10518;BME280;5307;42.548;22.968;2022-07-12T13:05:51;94206.00;;;21.47;40.69